ETAD 200119Z AUTO 07006KT 9999 SCT049 BKN060 BKN085 16/15 A3014 RMK AO2 LTG DSNT E AND S-SW RAB00E19 SLP182 $ ETAD 200100Z AUTO 09004KT 9999 -RA BKN060 BKN085 16/16 A3015 RMK AO2 LTG DSNT S RAB00 SLP186 $ ETAD 200056Z AUTO 08007KT 9999 SCT060 BKN085 16/16 A3014 RMK AO2 LTG DSNT S SLP182 T01570155 ETAD 200026Z AUTO 07005KT 9999 SCT055 BKN075 16/15 A3015 RMK AO2 LTG DSNT NE-E SLP186 $ ETAD 192356Z AUTO 04006KT 9999 FEW055 FEW075 SCT090 16/15 A3016 RMK AO2 LTG DSNT SE RAB16E28RAB34E35DZB35E36RAB36E48 SLP191 P0000 60000 T01590153 10183 20156 50001 ETAD 192348Z AUTO 02006KT 9999 SCT060 SCT090 16/16 A3016 RMK AO2 LTG DSNT SE RAB16E28RAB34E35DZB35E36RAB36E48 SLP191 $ ETAD 192334Z AUTO 04005KT 9999 -RA BKN060 BKN090 17/16 A3016 RMK AO2 LTG DSNT NW RAB16E28RAB34 SLP189 $ ETAD 192316Z AUTO 02004KT 9999 -RA BKN055 BKN090 16/16 A3017 RMK AO2 RAB16 SLP194 $ ETAD 192256Z AUTO 05005KT 9999 BKN060 BKN090 17/16 A3016 RMK AO2 SLP191 T01650160 402900156 ETAD 192241Z AUTO 04004KT 9999 BKN060 BKN080 16/16 A3017 RMK AO2 SLP195 $ ETAD 192156Z AUTO 07004KT 9999 OVC090 16/16 A3016 RMK AO2 SLP192 T01610159 ETAD 192056Z AUTO 06005KT 9999 BKN100 16/16 A3015 RMK AO2 SLP189 T01570155 50008 ETAD 191956Z AUTO 08005KT 9999 FEW100 16/16 A3016 RMK AO2 SLP193 T01640162 ETAD 191856Z AUTO 10003KT 9999 CLR 17/17 A3014 RMK AO2 SLP187 T01720170 $ ETAD 191756Z AUTO 08004KT 9999 FEW095 BKN130 18/16 A3013 RMK AO2 SLP185 60017 T01820163 10290 20179 52015 ETAD 191656Z 08004KT 9999 CLR 19/18 A3013 RMK AO2A LTG DSNT NW RAB1556E1557 SLP185 P0000 T01920179 ETAD 191556Z 33004KT 9999 FEW040 BKN100 19/17 A3009 RMK AO2A LTG DSNT NE AND SW RAB02E50 TSE40 SLP171 P0017 T01900170 ETAD 191540Z 33006KT 9999 VCTS -RA SCT025 BKN090 18/16 A3008 RMK AO2A RAB02 TSE40 SLP169 $ ETAD 191533Z 33006KT 9999 -TSRA SCT024 BKN090 18/16 A3008 RMK AO2A RAB02 SLP169 $ ETAD 191531Z 34006KT 9999 -TSRA SCT024 SCT090 18/16 A3008 RMK RAB02 SLP169 $ ETAD 191522Z 32008KT 9999 -TSRAGR SCT024 BKN060 BKN085 18/17 A3009 RMK RAB02 SLP173 $ ETAD 191517Z 32010G24KT 2000 +TSRA BKN024 BKN065 19/16 A3009 RMK AO2A VIS 1600V9000 RAB02 CIG 022V065 SLP171 $ ETAD 191515Z 32011G24KT 1800 +TSRA BKN026 BKN065 19/16 A3009 RMK AO2A WSHFT 12 VIS 1800V9999 RAB02 CIG 022V065 SLP171 $ ETAD 191502Z 30012KT 9999 -TSRA SCT060 BKN080 21/14 A3010 RMK AO2A RAB02 PRESRR SLP173 $ ETAD 191456Z AUTO 31011KT 9999 TS FEW048 SCT065 SCT190 21/14 A3008 RMK AO2 PK WND 28029/20 TSB01E53TSB55 SLP166 T02120143 53002 ETAD 191453Z 32011KT 9999 VCTS FEW048 FEW075 SCT190 21/14 A3008 RMK TSB01E56 SLP166 $ ETAD 191445Z 32011G18KT 9999 TS SCT049 SCT060 BKN190 22/14 A3008 RMK AO2A TSB01 SLP166 $ ETAD 191429Z 33015G23KT 9000 -TSRA BKN050 BKN060 24/16 A3007 RMK AO2A TSB01 PRESRR SLP160 $ ETAD 191424Z 35015G23KT 9000 -TSRA BKN050 BKN060 27/16 A3005 RMK AO2A WSHFT 22 TSB01 SLP152 $ ETAD 191422Z 30014G23KT 9000 -TSRA SCT050 27/16 A3005 RMK AO2A WSHFT 20 TSB01 SLP152 $ ETAD 191414Z 24013G20KT 9000 TSRA SCT050 28/16 A3004 RMK AO2A WSHFT 02 TSB01 SLP147 $ ETAD 191402Z AUTO 20012KT 9999 TS FEW050 28/16 A3004 RMK AO2 TSB01 SLP147 $ ETAD 191401Z 21012KT 9000 -TSRA FEW055 28/16 A3004 RMK SLP147 $ ETAD 191356Z AUTO 22014G19KT 9999 FEW055 28/16 A3005 RMK AO2 LTG DSNT NW-N SLP150 T02780158 ETAD 191342Z 22013G21KT 9999 VCTS FEW170 FEW190 29/16 A3005 RMK LTG DSNT W SLP150 $ ETAD 191256Z 21011KT 9999 FEW170 FEW190 27/16 A3006 RMK AO2A SLP155 T02710161 ETAD 191156Z 24010KT 9999 FEW190 26/15 A3008 RMK AO2A SLP162 T02640154 10265 20185 58003 ETAD 191056Z 17005KT 9999 FEW200 25/14 A3008 RMK AO2A SLP162 T02490140 $ ETAD 190956Z 19006KT 9999 FEW200 24/13 A3009 RMK AO2A SLP165 T02360134 $ ETAD 190856Z 00000KT 9999 FEW200 23/14 A3009 RMK AO2A SLP165 T02300137 50000 $ ETAD 190756Z AUTO 09004KT 9999 CLR 22/13 A3009 RMK AO2 SLP165 T02160132 $ ETAD 190656Z AUTO 09005KT 9999 CLR 21/12 A3009 RMK AO2 SLP165 T02090123 $ ETAD 190556Z AUTO 07004KT 9999 SCT120 18/12 A3009 RMK AO2 SLP165 T01840122 10186 20160 52005 $ ETAD 190456Z AUTO 08004KT 9999 CLR 17/11 A3008 RMK AO2 SLP162 T01720110 ETAD 190356Z AUTO 08005KT 9999 CLR 17/10 A3008 RMK AO2 SLP162 T01650103 ETAD 190256Z AUTO 07004KT 9999 CLR 17/10 A3007 RMK AO2 SLP159 T01690103 55006 ETAD 190156Z AUTO 08003KT 9999 CLR 18/10 A3008 RMK AO2 SLP160 T01790103 ETAD 190056Z AUTO 08006KT 9999 CLR 18/11 A3008 RMK AO2 SLP160 T01780107 ETAD 182356Z AUTO 09005KT 9999 CLR 18/10 A3009 RMK AO2 SLP164 T01830104 10259 20183 58007 ETAD 182256Z AUTO 08005KT 9999 CLR 19/10 A3011 RMK AO2 SLP171 T01850098 402890115 ETAD 182156Z 08004KT 9999 CLR 20/10 A3011 RMK AO2A SLP171 T02010099 ETAD 182056Z 08004KT 9999 CLR 20/10 A3011 RMK AO2A SLP172 T02030104 50001 ETAD 181956Z 09004KT 9999 CLR 22/11 A3012 RMK AO2A SLP176 T02210109 ETAD 181856Z 10004KT 9999 CLR 23/12 A3011 RMK AO2A SLP174 T02330117 ETAD 181756Z 11003KT 9999 CLR 26/11 A3011 RMK AO2A SLP172 60000 T02600106 10289 20260 56004 ETAD 181656Z 12004KT 9999 FEW075 27/10 A3011 RMK AO2A SLP175 T02730096 ETAD 181556Z 13004KT 9999 FEW080 28/10 A3012 RMK AO2A SLP178 T02760103 ETAD 181456Z 10007KT 9999 FEW075 28/10 A3012 RMK AO2A SLP178 60000 T02760103 57010 ETAD 181356Z COR AUTO 12004KT 9999 FEW075 28/10 A3013 RMK AO2 RAB13E16 SLP180 P0000 T02800097 $ COR 1416 ETAD 181348Z AUTO 09004KT 9999 -RA FEW075 27/10 A3013 RMK AO2 RAB13E16RAB48 SLP180 $

METAR Messwerte "SPANGDAHLEM (USA" ETAD

Zurück zur Übersicht

Ortsname
Ländercode / m ü. NN
Zeit Temperatur Taupunkt Rel.
Luftfeuchte
Luftdruck:
Altimeter
NN
Station
Wind in Beaufort
(Knoten)
Sichtweite
(Meter)
Wolken
(Meter über Grund)
Wettererscheinung
SPANGDAHLEM (USA
DE 365
Fr 20.05. 03:19161594 %1021
1021
978
ONO 2 (6)>= 10000Stark bewölkt (2600)
Stark bewölkt (1800)
Wolkig (1500)
 
SPANGDAHLEM (USA
DE 365
Fr 20.05. 03:001616100 %1021
1021
978
O 2 (4)>= 10000Stark bewölkt (2600)
Stark bewölkt (1800)
Regen (schwach)
SPANGDAHLEM (USA
DE 365
Fr 20.05. 02:561616100 %1021
1021
978
O 3 (7)>= 10000Stark bewölkt (2600)
Wolkig (1800)
 
SPANGDAHLEM (USA
DE 365
Fr 20.05. 02:26161594 %1021
1021
978
ONO 2 (5)>= 10000Stark bewölkt (2300)
Wolkig (1700)
 
SPANGDAHLEM (USA
DE 365
Fr 20.05. 01:56161594 %1021
1021
978
NO 2 (6)>= 10000Wolkig (2700)
Leicht bewölkt (2300)
Leicht bewölkt (1700)
 
SPANGDAHLEM (USA
DE 365
Fr 20.05. 01:481616100 %1021
1021
978
NNO 2 (6)>= 10000Wolkig (2700)
Wolkig (1800)
 
SPANGDAHLEM (USA
DE 365
Fr 20.05. 01:34171694 %1021
1021
978
NO 2 (5)>= 10000Stark bewölkt (2700)
Stark bewölkt (1800)
Regen (schwach)
SPANGDAHLEM (USA
DE 365
Fr 20.05. 01:161616100 %1022
1022
979
NNO 2 (4)>= 10000Stark bewölkt (2700)
Stark bewölkt (1700)
Regen (schwach)
SPANGDAHLEM (USA
DE 365
Fr 20.05. 00:56171694 %1021
1021
978
NO 2 (5)>= 10000Stark bewölkt (2700)
Stark bewölkt (1800)
 
SPANGDAHLEM (USA
DE 365
Fr 20.05. 00:411616100 %1022
1022
979
NO 2 (4)>= 10000Stark bewölkt (2400)
Stark bewölkt (1800)
 
SPANGDAHLEM (USA
DE 365
Do 19.05. 23:561616100 %1021
1021
978
ONO 2 (4)>= 10000Bedeckt (2700) 
SPANGDAHLEM (USA
DE 365
Do 19.05. 22:561616100 %1021
1021
978
ONO 2 (5)>= 10000Stark bewölkt (3000) 
SPANGDAHLEM (USA
DE 365
Do 19.05. 21:561616100 %1021
1021
978
O 2 (5)>= 10000Leicht bewölkt (3000) 
SPANGDAHLEM (USA
DE 365
Do 19.05. 20:561717100 %1021
1021
978
O 2 (3)>= 10000  
SPANGDAHLEM (USA
DE 365
Do 19.05. 19:56181688 %1020
1020
977
O 2 (4)>= 10000Stark bewölkt (4000)
Leicht bewölkt (2900)
 
SPANGDAHLEM (USA
DE 365
Do 19.05. 18:56191894 %1020
1019
977
O 2 (4)>= 10000  
SPANGDAHLEM (USA
DE 365
Do 19.05. 17:56191788 %1019
1018
976
NNW 2 (4)>= 10000Stark bewölkt (3000)
Leicht bewölkt (1200)
 
SPANGDAHLEM (USA
DE 365
Do 19.05. 17:40181688 %1019
1019
976
NNW 2 (6)>= 10000Stark bewölkt (2700)
Wolkig (760)
Regen (schwach)
SPANGDAHLEM (USA
DE 365
Do 19.05. 17:33181688 %1019
1019
976
NNW 2 (6)>= 10000Stark bewölkt (2700)
Wolkig (730)
Gewitter mit Regen (schwach)
SPANGDAHLEM (USA
DE 365
Do 19.05. 17:31181688 %1019
1019
976
NNW 2 (6)>= 10000Wolkig (2700)
Wolkig (730)
Gewitter mit Regen (schwach)
SPANGDAHLEM (USA
DE 365
Do 19.05. 17:22181794 %1019
1019
976
NW 3 (8)>= 10000Stark bewölkt (2600)
Stark bewölkt (1800)
Wolkig (730)
Gewitter mit Regen/Hagel (schwach)
SPANGDAHLEM (USA
DE 365
Do 19.05. 17:17191683 %1019
1018
976
NW 3 (10) - 6 (24)2000Stark bewölkt (2000)
Stark bewölkt (730)
Gewitter mit Regen (stark)
SPANGDAHLEM (USA
DE 365
Do 19.05. 17:15191683 %1019
1018
976
NW 4 (11) - 6 (24)1800Stark bewölkt (2000)
Stark bewölkt (790)
Gewitter mit Regen (stark)
SPANGDAHLEM (USA
DE 365
Do 19.05. 17:02211464 %1019
1018
976
WNW 4 (12)>= 10000Stark bewölkt (2400)
Wolkig (1800)
Gewitter mit Regen (schwach)
SPANGDAHLEM (USA
DE 365
Do 19.05. 16:56211464 %1019
1018
976
NW 4 (11)>= 10000Wolkig (5800)
Wolkig (2000)
Leicht bewölkt (1500)
 
SPANGDAHLEM (USA
DE 365
Do 19.05. 16:53211464 %1019
1018
976
NW 4 (11)>= 10000Wolkig (5800)
Leicht bewölkt (2300)
Leicht bewölkt (1500)
 
SPANGDAHLEM (USA
DE 365
Do 19.05. 16:45221460 %1019
1018
976
NW 4 (11) - 5 (18)>= 10000Stark bewölkt (5800)
Wolkig (1800)
Wolkig (1500)
 
SPANGDAHLEM (USA
DE 365
Do 19.05. 16:29241661 %1018
1017
975
NNW 4 (15) - 6 (23)9000Stark bewölkt (1800)
Stark bewölkt (1500)
Gewitter mit Regen (schwach)
SPANGDAHLEM (USA
DE 365
Do 19.05. 16:24271651 %1018
1016
975
N 4 (15) - 6 (23)9000Stark bewölkt (1800)
Stark bewölkt (1500)
Gewitter mit Regen (schwach)
SPANGDAHLEM (USA
DE 365
Do 19.05. 16:22271651 %1018
1016
975
WNW 4 (14) - 6 (23)9000Wolkig (1500)Gewitter mit Regen (schwach)
SPANGDAHLEM (USA
DE 365
Do 19.05. 16:14281648 %1017
1015
974
WSW 4 (13) - 5 (20)9000Wolkig (1500)Gewitter mit Regen
SPANGDAHLEM (USA
DE 365
Do 19.05. 16:02281648 %1017
1015
974
SSW 4 (12)>= 10000Leicht bewölkt (1500) 
SPANGDAHLEM (USA
DE 365
Do 19.05. 16:01281648 %1017
1015
974
SSW 4 (12)9000Leicht bewölkt (1700)Gewitter mit Regen (schwach)
SPANGDAHLEM (USA
DE 365
Do 19.05. 15:56281648 %1018
1016
975
SW 4 (14) - 5 (19)>= 10000Leicht bewölkt (1700) 
SPANGDAHLEM (USA
DE 365
Do 19.05. 15:42291645 %1018
1016
975
SW 4 (13) - 6 (21)>= 10000Leicht bewölkt (5800)
Leicht bewölkt (5200)
 
SPANGDAHLEM (USA
DE 365
Do 19.05. 14:56271651 %1018
1016
975
SSW 4 (11)>= 10000Leicht bewölkt (5800)
Leicht bewölkt (5200)
 
SPANGDAHLEM (USA
DE 365
Do 19.05. 13:56261551 %1019
1017
976
WSW 3 (10)>= 10000Leicht bewölkt (5800) 
SPANGDAHLEM (USA
DE 365
Do 19.05. 12:56251450 %1019
1018
976
S 2 (5)>= 10000Leicht bewölkt (6100) 
SPANGDAHLEM (USA
DE 365
Do 19.05. 11:56241350 %1019
1018
976
S 2 (6)>= 10000Leicht bewölkt (6100) 
SPANGDAHLEM (USA
DE 365
Do 19.05. 10:56231457 %1019
1018
976
Windstill>= 10000Leicht bewölkt (6100) 
SPANGDAHLEM (USA
DE 365
Do 19.05. 09:56221357 %1019
1018
976
O 2 (4)>= 10000  
SPANGDAHLEM (USA
DE 365
Do 19.05. 08:56211256 %1019
1018
976
O 2 (5)>= 10000  
SPANGDAHLEM (USA
DE 365
Do 19.05. 07:56181268 %1019
1019
976
ONO 2 (4)>= 10000Wolkig (3700) 
SPANGDAHLEM (USA
DE 365
Do 19.05. 06:56171168 %1019
1019
976
O 2 (4)>= 10000  
SPANGDAHLEM (USA
DE 365
Do 19.05. 05:56171063 %1019
1019
976
O 2 (5)>= 10000  
SPANGDAHLEM (USA
DE 365
Do 19.05. 04:56171063 %1018
1018
975
ONO 2 (4)>= 10000  
SPANGDAHLEM (USA
DE 365
Do 19.05. 03:56181059 %1019
1019
976
O 2 (3)>= 10000  
SPANGDAHLEM (USA
DE 365
Do 19.05. 02:56181164 %1019
1019
976
O 2 (6)>= 10000  
SPANGDAHLEM (USA
DE 365
Do 19.05. 01:56181059 %1019
1019
976
O 2 (5)>= 10000  
SPANGDAHLEM (USA
DE 365
Do 19.05. 00:56191056 %1020
1019
977
O 2 (5)>= 10000  
SPANGDAHLEM (USA
DE 365
Mi 18.05. 23:56201053 %1020
1019
977
O 2 (4)>= 10000  
SPANGDAHLEM (USA
DE 365
Mi 18.05. 22:56201053 %1020
1019
977
O 2 (4)>= 10000  
SPANGDAHLEM (USA
DE 365
Mi 18.05. 21:56221150 %1020
1019
977
O 2 (4)>= 10000  
SPANGDAHLEM (USA
DE 365
Mi 18.05. 20:56231250 %1020
1019
977
O 2 (4)>= 10000  
SPANGDAHLEM (USA
DE 365
Mi 18.05. 19:56261139 %1020
1018
977
OSO 2 (3)>= 10000  
SPANGDAHLEM (USA
DE 365
Mi 18.05. 18:56271034 %1020
1018
977
OSO 2 (4)>= 10000Leicht bewölkt (2300) 
SPANGDAHLEM (USA
DE 365
Mi 18.05. 17:56281032 %1020
1018
977
SO 2 (4)>= 10000Leicht bewölkt (2400) 
SPANGDAHLEM (USA
DE 365
Mi 18.05. 16:56281032 %1020
1018
977
O 3 (7)>= 10000Leicht bewölkt (2300) 
SPANGDAHLEM (USA
DE 365
Mi 18.05. 15:56281032 %1020
1018
977
OSO 2 (4)>= 10000Leicht bewölkt (2300) 
SPANGDAHLEM (USA
DE 365
Mi 18.05. 15:48271034 %1020
1018
977
O 2 (4)>= 10000Leicht bewölkt (2300)Regen (schwach)

Altimeter: Einstellung am Altimeter (Höhenmesser), die Höhe 0 muss auf diesen Luftdruckwert zeigen, damit das Gerät die Stationshöhe richtig anzeigt.

NN: Luftdruck reduziert auf "Normal Null", auf Meereshöhe, dieser von der Temperatur abhängige Wert wird bisweilen unkorrekt einfach als "Luftdruck" bezeichnet. Eigentlich nur eine fiktive Größe, die es erlaubt, Stationen auf unterschiedlichen Höhen miteinander zu vergleichen.

Station: Realer Luftdruck an der Station.